Time;durP1;ratioP1;P1;durP2;ratioP2;P2;SDS_P1;SDS_P2;PMS_P1;PMS_P2;Temp;Humidity;BMP_temperature;BMP_pressure;BME280_temperature;BME280_humidity;BME280_pressure;Samples;Min_cycle;Max_cycle;Signal;HPM_P1;HPM_P2
2023/06/22 00:00:11;;;;;;;13.65;12.25;;;;;;;20.71;80.56;101167.78;4981172;28;20054;-60
2023/06/22 00:02:38;;;;;;;13.00;11.65;;;;;;;20.70;81.18;101162.56;4980370;28;20160;-59
2023/06/22 00:05:05;;;;;;;14.80;12.27;;;;;;;20.66;81.57;101172.69;4979094;28;20042;-58
2023/06/22 00:07:33;;;;;;;14.65;12.18;;;;;;;20.61;81.86;101169.59;4978580;28;20149;-59
2023/06/22 00:10:00;;;;;;;15.30;12.43;;;;;;;20.59;81.65;101165.41;4977357;28;20243;-59
2023/06/22 00:12:27;;;;;;;13.02;11.73;;;;;;;20.55;82.01;101174.69;4979560;28;20093;-52
2023/06/22 00:14:54;;;;;;;12.55;11.35;;;;;;;20.51;81.78;101176.78;4980034;28;20072;-57
2023/06/22 00:17:22;;;;;;;13.27;11.93;;;;;;;20.47;82.27;101170.00;4981035;28;20463;-59
2023/06/22 00:19:53;;;;;;;12.85;11.02;;;;;;;20.41;82.34;101162.56;4980413;28;20054;-59
2023/06/22 00:22:28;;;;;;;13.25;11.90;;;;;;;20.38;82.60;101182.38;4983264;28;20521;-57
2023/06/22 00:24:56;;;;;;;13.50;12.20;;;;;;;20.37;82.96;101177.19;4982286;28;20141;-57
2023/06/22 00:27:23;;;;;;;15.10;12.73;;;;;;;20.36;82.79;101188.88;4982439;28;20099;-53
2023/06/22 00:29:50;;;;;;;12.70;11.30;;;;;;;20.34;83.17;101191.66;4976855;28;20137;-59
2023/06/22 00:32:18;;;;;;;14.00;12.70;;;;;;;20.32;82.76;101193.66;4982176;28;20422;-58
2023/06/22 00:34:46;;;;;;;13.13;11.70;;;;;;;20.31;82.68;101193.78;4979249;28;20054;-57
2023/06/22 00:37:13;;;;;;;13.18;11.85;;;;;;;20.29;83.08;101193.91;4980018;28;20956;-56
2023/06/22 00:39:41;;;;;;;14.32;12.02;;;;;;;20.26;83.28;101188.84;4961820;28;20054;-57
2023/06/22 00:42:08;;;;;;;14.02;11.32;;;;;;;20.24;83.21;101188.16;4979892;28;20050;-54
2023/06/22 00:44:36;;;;;;;13.02;11.75;;;;;;;20.22;83.57;101196.31;4980426;28;20129;-59
2023/06/22 00:47:04;;;;;;;13.88;12.10;;;;;;;20.20;83.51;101195.59;4983279;28;20521;-59
2023/06/22 00:49:31;;;;;;;13.60;12.30;;;;;;;20.17;84.08;101195.03;4983770;28;20149;-50
2023/06/22 00:51:58;;;;;;;12.68;11.40;;;;;;;20.14;83.75;101193.50;4966440;28;20076;-58
2023/06/22 00:54:26;;;;;;;12.98;11.73;;;;;;;20.13;84.20;101196.31;4963544;28;20487;-59
2023/06/22 00:56:57;;;;;;;14.07;12.48;;;;;;;20.13;84.72;101185.63;4963908;28;20057;-58
2023/06/22 00:59:26;;;;;;;13.15;11.82;;;;;;;20.11;85.02;101188.41;4963467;28;20528;-59
2023/06/22 01:01:53;;;;;;;13.98;12.55;;;;;;;20.08;85.02;101194.03;4962612;28;20184;-57
2023/06/22 01:04:24;;;;;;;14.48;12.65;;;;;;;20.07;85.23;101200.34;4966046;28;20078;-58
2023/06/22 01:07:01;;;;;;;15.70;12.75;;;;;;;20.03;85.49;101198.94;4963331;28;20077;-56
2023/06/22 01:09:33;;;;;;;14.73;13.20;;;;;;;20.03;85.62;101198.94;4961840;28;20384;-57
2023/06/22 01:12:02;;;;;;;13.57;11.45;;;;;;;20.02;85.86;101199.94;4977117;28;20169;-56
2023/06/22 01:14:55;;;;;;;13.15;11.70;;;;;;;19.99;86.04;101213.56;4990222;28;20058;-58
2023/06/22 01:17:23;;;;;;;13.18;11.95;;;;;;;19.96;86.42;101216.53;4983940;28;20054;-57
2023/06/22 01:19:57;;;;;;;15.05;11.70;;;;;;;19.94;86.12;101207.78;4951686;28;20145;-57
2023/06/22 01:22:28;;;;;;;14.23;10.85;;;;;;;19.92;86.66;101207.94;4977633;28;20045;-52
2023/06/22 01:25:08;;;;;;;12.93;11.73;;;;;;;19.91;87.43;101216.09;4961654;28;20038;-55
2023/06/22 01:27:41;;;;;;;12.85;11.55;;;;;;;19.89;87.65;101215.38;4983221;28;20068;-55
2023/06/22 01:30:10;;;;;;;13.85;12.32;;;;;;;19.86;88.00;101207.66;4978789;28;20058;-58
2023/06/22 01:32:39;;;;;;;14.65;11.43;;;;;;;19.83;88.14;101211.41;4995575;28;20147;-56
2023/06/22 01:35:07;;;;;;;14.60;12.10;;;;;;;19.82;88.37;101208.91;4962716;28;20658;-52
2023/06/22 01:37:36;;;;;;;12.68;11.48;;;;;;;19.77;88.76;101205.75;4964167;28;20465;-55
2023/06/22 01:40:05;;;;;;;13.48;12.02;;;;;;;19.74;88.85;101212.25;4995557;28;20050;-58
2023/06/22 01:42:34;;;;;;;13.13;10.95;;;;;;;19.72;89.22;101224.88;4990304;28;20081;-58
2023/06/22 01:45:02;;;;;;;14.13;12.63;;;;;;;19.69;89.93;101226.00;4982302;28;20046;-57
2023/06/22 01:47:29;;;;;;;13.57;12.18;;;;;;;19.67;89.87;101227.09;4970306;28;20050;-55
2023/06/22 01:49:57;;;;;;;13.00;11.68;;;;;;;19.65;90.17;101224.56;4980695;28;20121;-50
2023/06/22 01:52:24;;;;;;;12.48;11.15;;;;;;;19.64;90.29;101228.22;4963653;28;20061;-53
2023/06/22 01:54:51;;;;;;;14.35;12.77;;;;;;;19.62;90.71;101224.84;4962589;28;20054;-58
2023/06/22 01:57:19;;;;;;;14.88;12.52;;;;;;;19.58;90.47;101223.38;4957394;28;20192;-57
2023/06/22 01:59:59;;;;;;;19.13;12.25;;;;;;;19.56;90.89;101225.34;4940170;28;20530;-53
2023/06/22 02:02:31;;;;;;;15.90;12.73;;;;;;;19.56;90.91;101229.84;4960039;28;20074;-55
2023/06/22 02:05:10;;;;;;;14.48;13.00;;;;;;;19.55;90.96;101225.50;4980514;28;20042;-50
2023/06/22 02:07:51;;;;;;;15.25;13.18;;;;;;;19.54;91.91;101216.59;4978129;28;20068;-53
2023/06/22 02:10:20;;;;;;;17.15;12.75;;;;;;;19.53;91.47;101230.94;4977472;28;20062;-55
2023/06/22 02:12:47;;;;;;;13.32;11.93;;;;;;;19.52;91.47;101223.91;4979808;28;20054;-55
2023/06/22 02:15:15;;;;;;;13.10;11.80;;;;;;;19.52;91.71;101231.09;4957293;28;20058;-58
2023/06/22 02:17:44;;;;;;;13.82;12.27;;;;;;;19.51;91.91;101230.25;4967145;28;20063;-52
2023/06/22 02:20:13;;;;;;;11.60;10.50;;;;;;;19.51;91.86;101224.91;4977127;28;20049;-60
2023/06/22 02:22:41;;;;;;;13.38;12.02;;;;;;;19.52;92.37;101233.75;4979858;28;20151;-57
2023/06/22 02:25:08;;;;;;;16.33;11.98;;;;;;;19.53;92.98;101241.63;4978586;28;20054;-54
2023/06/22 02:27:35;;;;;;;12.15;10.82;;;;;;;19.54;93.04;101248.66;4963080;28;20050;-58
2023/06/22 02:30:03;;;;;;;13.32;12.10;;;;;;;19.55;92.65;101247.69;4978884;28;20157;-56
2023/06/22 02:32:30;;;;;;;12.40;11.27;;;;;;;19.58;92.38;101251.91;4975768;28;20058;-55
2023/06/22 02:34:57;;;;;;;16.23;12.02;;;;;;;19.60;92.88;101244.63;4974090;28;20068;-55
2023/06/22 02:37:25;;;;;;;12.48;11.32;;;;;;;19.60;92.84;101247.31;4978063;28;20050;-56
2023/06/22 02:39:52;;;;;;;12.25;11.05;;;;;;;19.63;93.41;101244.38;4978184;28;20069;-58
2023/06/22 02:42:21;;;;;;;11.90;10.70;;;;;;;19.63;93.44;101250.59;4980674;28;20141;-55
2023/06/22 02:44:49;;;;;;;13.75;11.10;;;;;;;19.65;93.65;101245.09;4967429;28;20096;-57
2023/06/22 02:47:16;;;;;;;12.68;11.38;;;;;;;19.68;93.64;101242.16;4989390;28;20082;-61
2023/06/22 02:49:45;;;;;;;12.98;11.65;;;;;;;19.70;93.47;101246.38;4993004;28;20093;-55
2023/06/22 02:52:14;;;;;;;13.80;10.80;;;;;;;19.72;93.36;101247.13;4942069;28;20062;-60
2023/06/22 02:54:45;;;;;;;15.70;11.43;;;;;;;19.75;92.89;101245.97;4978916;28;20034;-52
2023/06/22 02:57:13;;;;;;;14.07;12.45;;;;;;;19.79;93.04;101252.75;4988777;28;20150;-55
2023/06/22 02:59:41;;;;;;;14.48;13.00;;;;;;;19.80;93.16;101245.56;4982350;28;20726;-56
2023/06/22 03:02:09;;;;;;;21.70;14.48;;;;;;;19.79;93.68;101247.41;4971297;28;20120;-51
2023/06/22 03:04:36;;;;;;;17.42;13.27;;;;;;;19.77;93.95;101244.03;4983774;28;20054;-54
2023/06/22 03:07:04;;;;;;;17.48;13.63;;;;;;;19.78;93.90;101244.88;4987276;28;20487;-57
2023/06/22 03:09:32;;;;;;;15.85;13.27;;;;;;;19.80;94.02;101233.06;4983317;28;20078;-54
2023/06/22 03:12:01;;;;;;;17.83;14.65;;;;;;;19.85;93.97;101238.00;4982790;28;20406;-52
2023/06/22 03:14:29;;;;;;;17.20;14.43;;;;;;;19.87;94.21;101249.41;4987125;28;20411;-53
2023/06/22 03:17:01;;;;;;;19.30;13.73;;;;;;;19.85;94.03;101246.00;4985444;28;20153;-59
2023/06/22 03:19:31;;;;;;;20.00;13.27;;;;;;;19.88;93.85;101245.75;4987391;28;20050;-54
2023/06/22 03:22:00;;;;;;;14.73;13.25;;;;;;;19.89;93.33;101244.75;4983848;28;20078;-51
2023/06/22 03:24:29;;;;;;;15.48;12.80;;;;;;;19.91;93.05;101240.97;4987566;28;20050;-51
2023/06/22 03:26:56;;;;;;;13.73;12.32;;;;;;;19.94;92.43;101239.84;4984289;28;20059;-51
2023/06/22 03:29:25;;;;;;;14.93;12.68;;;;;;;19.97;92.28;101242.25;4983945;28;20154;-54
2023/06/22 03:31:55;;;;;;;13.85;12.43;;;;;;;20.00;91.88;101236.66;4983160;28;20053;-56
2023/06/22 03:34:22;;;;;;;11.90;10.68;;;;;;;20.05;91.47;101241.59;4965464;28;20137;-51
2023/06/22 03:36:50;;;;;;;13.90;11.00;;;;;;;20.08;91.34;101242.13;4987201;28;20054;-54
2023/06/22 03:39:18;;;;;;;11.65;9.02;;;;;;;20.12;90.67;101238.22;4968213;28;20081;-56
2023/06/22 03:41:45;;;;;;;13.50;9.88;;;;;;;20.13;90.03;101242.59;4966517;28;20054;-49
2023/06/22 03:44:13;;;;;;;12.10;9.82;;;;;;;20.14;89.63;101249.63;4982226;28;20058;-54
2023/06/22 03:46:41;;;;;;;14.93;10.10;;;;;;;20.16;89.38;101244.97;4976950;28;20137;-51
2023/06/22 03:49:08;;;;;;;11.10;8.80;;;;;;;20.18;89.50;101244.84;4984107;28;20089;-55
2023/06/22 03:51:36;;;;;;;11.88;8.98;;;;;;;20.21;88.85;101247.22;4983736;28;20165;-55
2023/06/22 03:54:08;;;;;;;10.43;9.20;;;;;;;20.22;88.63;101239.09;4981894;28;20057;-56
2023/06/22 03:56:35;;;;;;;11.15;8.70;;;;;;;20.24;88.31;101244.28;4968958;28;20133;-53
2023/06/22 03:59:02;;;;;;;10.45;9.35;;;;;;;20.24;88.07;101241.63;4981441;28;20129;-56
2023/06/22 04:01:29;;;;;;;13.43;8.93;;;;;;;20.23;87.60;101240.78;4981480;28;20058;-54
2023/06/22 04:03:56;;;;;;;9.25;8.10;;;;;;;20.27;87.07;101240.50;4985170;28;20054;-56
2023/06/22 04:06:24;;;;;;;11.48;8.80;;;;;;;20.30;86.28;101246.41;4985590;28;20112;-57
2023/06/22 04:08:51;;;;;;;11.38;8.40;;;;;;;20.29;85.41;101249.22;4983641;28;20133;-56
2023/06/22 04:11:18;;;;;;;8.25;7.28;;;;;;;20.28;85.44;101248.38;4982633;28;20145;-53
2023/06/22 04:13:46;;;;;;;12.23;7.35;;;;;;;20.30;84.95;101246.41;4984722;28;20074;-57
2023/06/22 04:16:13;;;;;;;11.32;7.55;;;;;;;20.34;84.57;101250.50;4983491;28;20053;-54
2023/06/22 04:18:41;;;;;;;9.32;6.75;;;;;;;20.38;83.57;101253.75;4984889;28;20053;-54
2023/06/22 04:21:10;;;;;;;11.07;5.90;;;;;;;20.39;82.64;101248.25;4981864;28;20054;-53
2023/06/22 04:23:37;;;;;;;8.60;6.10;;;;;;;20.43;82.15;101248.81;4987519;28;20058;-57
2023/06/22 04:26:04;;;;;;;9.27;6.75;;;;;;;20.46;82.34;101261.94;4981275;28;20134;-51
2023/06/22 04:28:35;;;;;;;10.75;6.35;;;;;;;20.52;81.74;101266.75;4985171;28;20137;-55
2023/06/22 04:31:02;;;;;;;8.07;6.72;;;;;;;20.58;81.15;101268.00;4978636;28;20056;-56
2023/06/22 04:33:31;;;;;;;8.45;6.05;;;;;;;20.62;80.98;101272.09;4981871;28;20500;-53
2023/06/22 04:36:00;;;;;;;6.95;5.90;;;;;;;20.64;80.41;101276.34;4982967;28;20057;-52
2023/06/22 04:38:28;;;;;;;6.43;5.28;;;;;;;20.65;79.22;101272.66;4980852;28;21056;-51
2023/06/22 04:40:55;;;;;;;10.52;5.63;;;;;;;20.69;78.28;101281.25;4981545;28;20065;-58
2023/06/22 04:43:22;;;;;;;7.28;5.50;;;;;;;20.71;77.61;101272.13;4989029;28;20082;-57
2023/06/22 04:45:52;;;;;;;9.52;5.40;;;;;;;20.76;76.97;101284.22;4993913;28;20049;-55
2023/06/22 04:48:19;;;;;;;7.22;5.10;;;;;;;20.82;76.39;101284.50;4987154;28;20054;-52
2023/06/22 04:50:47;;;;;;;7.15;4.88;;;;;;;20.89;75.92;101282.09;4982420;28;20051;-56
2023/06/22 04:53:14;;;;;;;8.27;5.00;;;;;;;20.98;76.03;101281.25;4983644;28;20475;-48
2023/06/22 04:55:45;;;;;;;7.13;5.15;;;;;;;21.05;75.56;101268.16;4971374;28;20133;-53
2023/06/22 04:58:12;;;;;;;8.48;4.93;;;;;;;21.13;74.79;101277.16;4982380;28;20070;-58
2023/06/22 05:00:40;;;;;;;4.95;4.45;;;;;;;21.19;73.97;101281.09;4980571;28;20537;-51
2023/06/22 05:03:10;;;;;;;7.50;4.95;;;;;;;21.29;73.37;101284.59;4986938;28;20555;-56
2023/06/22 05:05:46;;;;;;;6.63;4.45;;;;;;;21.42;72.44;101287.00;4985662;28;20523;-56
2023/06/22 05:08:14;;;;;;;8.15;4.10;;;;;;;21.58;71.91;101275.69;4984857;28;20092;-53
2023/06/22 05:10:41;;;;;;;7.70;4.15;;;;;;;21.73;71.63;101285.78;4980977;28;20054;-53
2023/06/22 05:13:26;;;;;;;6.07;3.92;;;;;;;21.89;70.84;101276.28;4982177;28;20050;-55
2023/06/22 05:16:00;;;;;;;7.63;4.32;;;;;;;22.02;70.61;101279.47;4982594;28;20676;-53
2023/06/22 05:18:29;;;;;;;6.23;4.70;;;;;;;22.13;70.04;101281.97;4979875;28;20077;-53
2023/06/22 05:20:58;;;;;;;9.02;4.65;;;;;;;22.21;69.42;101281.22;4981279;28;20092;-57
2023/06/22 05:23:25;;;;;;;6.55;4.72;;;;;;;22.27;68.89;101285.13;4996837;28;20563;-58
2023/06/22 05:25:54;;;;;;;6.78;4.63;;;;;;;22.33;68.80;101284.53;4968552;28;20545;-51
2023/06/22 05:28:22;;;;;;;11.18;4.90;;;;;;;22.37;68.71;101293.97;4983438;28;20057;-57
2023/06/22 05:30:50;;;;;;;8.52;4.80;;;;;;;22.43;68.50;101296.91;4979188;28;20070;-53
2023/06/22 05:33:18;;;;;;;9.18;4.65;;;;;;;22.48;68.30;101297.28;4983476;28;20137;-53
2023/06/22 05:35:45;;;;;;;7.20;5.22;;;;;;;22.50;68.07;101300.66;4984345;28;20598;-54
2023/06/22 05:38:13;;;;;;;8.57;5.22;;;;;;;22.58;67.78;101296.38;4980156;28;20130;-54
2023/06/22 05:40:40;;;;;;;7.13;5.15;;;;;;;22.61;67.68;101291.56;4983323;28;20058;-56
2023/06/22 05:43:08;;;;;;;7.90;5.82;;;;;;;22.62;67.48;101287.03;4975915;28;20137;-55
2023/06/22 05:45:35;;;;;;;9.13;4.32;;;;;;;22.68;66.90;101297.13;4984331;28;20058;-54
2023/06/22 05:48:02;;;;;;;8.05;4.68;;;;;;;22.70;66.95;101297.84;4977173;28;21501;-56
2023/06/22 05:50:30;;;;;;;7.60;4.97;;;;;;;22.71;66.83;101297.69;4983667;28;20469;-54
2023/06/22 05:52:57;;;;;;;8.93;5.30;;;;;;;22.77;66.45;101301.59;4989629;28;20167;-57
2023/06/22 05:55:25;;;;;;;7.55;5.53;;;;;;;22.93;66.25;101314.38;4977196;28;20141;-53
2023/06/22 05:57:52;;;;;;;9.13;4.82;;;;;;;23.03;65.41;101317.81;4983129;28;20135;-55
2023/06/22 06:00:20;;;;;;;6.20;4.22;;;;;;;23.11;65.09;101325.94;4989074;28;20146;-53
2023/06/22 06:02:49;;;;;;;8.80;4.70;;;;;;;23.20;64.64;101318.78;4981551;28;20058;-55
2023/06/22 06:05:16;;;;;;;7.85;5.10;;;;;;;23.28;64.64;101318.88;4962644;28;20054;-58
2023/06/22 06:07:45;;;;;;;6.13;4.35;;;;;;;23.37;64.26;101322.44;4983926;28;20057;-56
2023/06/22 06:10:12;;;;;;;6.20;4.68;;;;;;;23.47;63.56;101315.13;4978379;28;20073;-54
2023/06/22 06:12:39;;;;;;;7.40;4.85;;;;;;;23.50;63.63;101321.03;4981841;28;20519;-55
2023/06/22 06:15:07;;;;;;;4.15;3.75;;;;;;;23.56;63.09;101313.34;4984529;28;20076;-55
2023/06/22 06:17:53;;;;;;;9.23;4.72;;;;;;;23.55;63.25;101314.31;4983394;28;20056;-57
2023/06/22 06:20:22;;;;;;;6.28;4.80;;;;;;;23.55;63.31;101315.19;4982280;28;20069;-54
2023/06/22 06:22:49;;;;;;;8.02;5.20;;;;;;;23.61;63.13;101311.03;4981491;28;20166;-57
2023/06/22 06:25:19;;;;;;;7.15;4.72;;;;;;;23.61;62.54;101314.56;4983349;28;20080;-54
2023/06/22 06:27:48;;;;;;;8.35;5.18;;;;;;;23.65;62.03;101296.28;4981239;28;20405;-57
2023/06/22 06:30:18;;;;;;;7.25;4.53;;;;;;;23.71;61.69;101291.09;4978684;28;20081;-58
2023/06/22 06:32:46;;;;;;;9.05;4.68;;;;;;;23.79;61.43;101305.59;4975175;28;20047;-57
2023/06/22 06:35:18;;;;;;;9.02;4.40;;;;;;;23.89;61.07;101314.41;4980097;28;20050;-56
2023/06/22 06:37:47;;;;;;;5.43;4.45;;;;;;;23.99;60.51;101315.09;4979795;28;20643;-52
2023/06/22 06:40:16;;;;;;;6.10;4.00;;;;;;;24.09;60.42;101315.84;4976803;28;20141;-54
2023/06/22 06:42:45;;;;;;;6.60;3.97;;;;;;;24.20;59.57;101318.22;4982666;28;20573;-55
2023/06/22 06:45:15;;;;;;;4.90;3.40;;;;;;;24.28;58.26;101324.66;4988018;28;20132;-52
2023/06/22 06:47:43;;;;;;;5.40;3.35;;;;;;;24.38;57.78;101325.41;4976291;28;20077;-55
2023/06/22 06:50:10;;;;;;;4.00;3.05;;;;;;;24.47;57.57;101324.41;4973004;28;20073;-55
2023/06/22 06:52:38;;;;;;;5.10;2.92;;;;;;;24.49;57.00;101319.69;4978639;28;20125;-54
2023/06/22 06:55:11;;;;;;;5.28;3.50;;;;;;;24.53;56.94;101312.13;4983078;28;20050;-54
2023/06/22 06:57:40;;;;;;;5.30;3.30;;;;;;;24.62;55.90;101311.16;4979361;28;20506;-57
2023/06/22 07:00:13;;;;;;;5.22;3.08;;;;;;;24.69;55.85;101313.00;4981648;28;20394;-56
2023/06/22 07:02:42;;;;;;;7.07;3.03;;;;;;;24.86;55.37;101310.34;4983471;28;20058;-53
2023/06/22 07:05:11;;;;;;;6.95;3.33;;;;;;;24.90;54.43;101304.47;4976479;28;20046;-57
2023/06/22 07:07:38;;;;;;;4.40;2.90;;;;;;;25.03;54.58;101306.63;4983117;28;20050;-52
2023/06/22 07:10:06;;;;;;;6.30;3.72;;;;;;;25.15;53.76;101297.25;4983169;28;20108;-52
2023/06/22 07:12:34;;;;;;;5.55;2.92;;;;;;;25.35;53.92;101302.28;4980548;28;20503;-55
2023/06/22 07:15:08;;;;;;;5.22;3.50;;;;;;;25.53;52.65;101297.53;4978191;28;20129;-49
2023/06/22 07:17:36;;;;;;;5.72;2.72;;;;;;;25.63;52.19;101290.09;4982211;28;20050;-54
2023/06/22 07:20:10;;;;;;;6.22;3.10;;;;;;;25.79;51.41;101289.22;4975217;28;20047;-53
2023/06/22 07:22:42;;;;;;;8.50;3.35;;;;;;;25.94;50.85;101287.50;4977796;28;20050;-56
2023/06/22 07:25:13;;;;;;;5.75;2.88;;;;;;;26.04;50.04;101281.91;4962465;28;20049;-57
2023/06/22 07:27:46;;;;;;;4.07;2.30;;;;;;;26.00;49.34;101286.78;4980008;28;20064;-56
2023/06/22 07:30:13;;;;;;;9.27;3.28;;;;;;;26.16;48.92;101283.19;4977902;28;20509;-54
2023/06/22 07:32:40;;;;;;;6.35;2.88;;;;;;;26.34;48.49;101280.19;4988338;28;20126;-55
2023/06/22 07:35:08;;;;;;;5.10;3.25;;;;;;;26.53;48.31;101278.97;4984044;28;20054;-53
2023/06/22 07:37:35;;;;;;;7.15;3.22;;;;;;;26.57;47.84;101277.59;4985631;28;20054;-53
2023/06/22 07:40:06;;;;;;;4.53;2.70;;;;;;;26.62;47.86;101286.00;4972036;28;20081;-51
2023/06/22 07:42:34;;;;;;;4.00;2.70;;;;;;;26.77;47.79;101277.94;4985109;28;20054;-57
2023/06/22 07:45:03;;;;;;;5.07;2.63;;;;;;;26.88;47.22;101280.19;4983945;28;20054;-55
2023/06/22 07:47:30;;;;;;;5.13;2.72;;;;;;;26.97;47.01;101267.47;4989209;28;20468;-56
2023/06/22 07:50:00;;;;;;;7.00;2.70;;;;;;;26.92;45.48;101269.88;4976784;28;20140;-55
2023/06/22 07:52:29;;;;;;;3.30;2.35;;;;;;;27.04;45.28;101275.69;4980416;28;20058;-59
2023/06/22 07:54:56;;;;;;;6.57;3.00;;;;;;;27.16;44.66;101271.56;4984889;28;20589;-53
2023/06/22 07:57:31;;;;;;;4.30;2.72;;;;;;;27.24;43.44;101274.16;4978901;28;20153;-56
2023/06/22 08:00:00;;;;;;;2.78;2.28;;;;;;;27.34;43.10;101271.22;4980922;28;20160;-53
2023/06/22 08:02:27;;;;;;;3.22;2.47;;;;;;;27.35;42.08;101262.91;4984011;28;20197;-53
2023/06/22 08:04:55;;;;;;;4.22;2.70;;;;;;;27.42;42.29;101263.88;4979599;28;20046;-57
2023/06/22 08:07:42;;;;;;;5.10;2.63;;;;;;;27.48;42.01;101262.28;4981911;28;20056;-56
2023/06/22 08:10:12;;;;;;;4.40;2.53;;;;;;;27.56;42.27;101262.19;4984114;28;20050;-55
2023/06/22 08:12:40;;;;;;;3.13;2.83;;;;;;;27.66;42.36;101265.47;4981373;28;20137;-55
2023/06/22 08:15:07;;;;;;;5.57;2.70;;;;;;;27.65;42.43;101265.63;4979439;28;20057;-57
2023/06/22 08:17:37;;;;;;;2.85;2.25;;;;;;;27.72;42.24;101272.84;4986758;28;20046;-56
2023/06/22 08:20:14;;;;;;;2.78;2.20;;;;;;;27.76;42.30;101271.44;4983660;28;20058;-53
2023/06/22 08:22:42;;;;;;;4.63;2.67;;;;;;;27.82;41.62;101272.56;4970128;28;20180;-55
2023/06/22 08:25:10;;;;;;;3.58;2.60;;;;;;;27.84;41.36;101280.50;4981665;28;20062;-56
2023/06/22 08:27:38;;;;;;;4.85;2.75;;;;;;;27.76;41.14;101268.75;4975960;28;20069;-52
2023/06/22 08:30:06;;;;;;;5.03;2.78;;;;;;;27.80;41.29;101280.03;4977674;28;20687;-55
2023/06/22 08:32:33;;;;;;;3.22;2.65;;;;;;;27.83;41.50;101276.09;4982529;28;20054;-53
2023/06/22 08:35:01;;;;;;;5.18;2.30;;;;;;;27.92;41.47;101278.53;4980623;28;20046;-55
2023/06/22 08:37:31;;;;;;;3.30;2.60;;;;;;;27.95;41.14;101275.44;4985216;28;20093;-52
2023/06/22 08:39:59;;;;;;;3.70;2.38;;;;;;;27.93;41.01;101276.66;4982148;28;20051;-54
2023/06/22 08:42:27;;;;;;;3.53;2.60;;;;;;;27.99;40.68;101273.19;4982846;28;20158;-53
2023/06/22 08:44:55;;;;;;;3.88;3.03;;;;;;;28.00;40.94;101264.88;4975704;28;20180;-50
2023/06/22 08:47:22;;;;;;;5.45;2.97;;;;;;;28.00;40.26;101270.28;4980613;28;20072;-54
2023/06/22 08:49:50;;;;;;;3.40;2.90;;;;;;;28.07;40.36;101262.28;4985064;28;20502;-54
2023/06/22 08:52:19;;;;;;;3.22;2.88;;;;;;;28.13;40.20;101274.19;4981331;28;20467;-50
2023/06/22 08:54:47;;;;;;;3.20;2.70;;;;;;;28.04;39.95;101273.47;4983346;28;20117;-57
2023/06/22 08:57:15;;;;;;;3.90;2.88;;;;;;;28.10;40.44;101267.31;4983237;28;20051;-53
2023/06/22 08:59:43;;;;;;;6.57;2.53;;;;;;;28.29;40.53;101274.00;4979729;28;20088;-51
2023/06/22 09:02:10;;;;;;;3.92;2.28;;;;;;;28.49;40.09;101274.22;4981061;28;20054;-54
2023/06/22 09:04:38;;;;;;;3.70;3.22;;;;;;;28.64;39.43;101279.56;4982783;28;20050;-54
2023/06/22 09:07:06;;;;;;;5.53;3.70;;;;;;;28.76;39.74;101265.31;4982721;28;20139;-51
2023/06/22 09:09:33;;;;;;;3.35;2.97;;;;;;;28.89;39.53;101269.19;4986089;28;20050;-54
2023/06/22 09:12:00;;;;;;;3.85;2.80;;;;;;;29.04;39.48;101266.44;4981669;28;20217;-52
2023/06/22 09:14:28;;;;;;;4.32;2.88;;;;;;;29.22;39.45;101254.03;4982213;28;20092;-53
2023/06/22 09:16:55;;;;;;;8.45;2.90;;;;;;;29.35;39.00;101260.63;4982587;28;20057;-52
2023/06/22 09:19:22;;;;;;;5.45;3.33;;;;;;;29.32;38.61;101253.72;4978259;28;20190;-51
2023/06/22 09:21:50;;;;;;;3.90;3.10;;;;;;;29.36;38.14;101254.13;4984015;28;20104;-54
2023/06/22 09:24:17;;;;;;;4.47;2.58;;;;;;;29.50;38.13;101264.06;4982426;28;20084;-56
2023/06/22 09:26:44;;;;;;;7.35;2.80;;;;;;;29.58;37.32;101254.94;4980885;28;20085;-57
2023/06/22 09:29:11;;;;;;;9.32;3.75;;;;;;;29.65;37.08;101256.66;4976735;28;20053;-54
2023/06/22 09:31:39;;;;;;;7.60;3.35;;;;;;;29.76;36.75;101261.50;4985429;28;20433;-54
2023/06/22 09:34:06;;;;;;;3.42;2.55;;;;;;;29.66;35.52;101260.22;4980486;28;20409;-55
2023/06/22 09:36:33;;;;;;;4.10;3.03;;;;;;;29.66;36.05;101255.63;4982443;28;20050;-56
2023/06/22 09:39:05;;;;;;;6.13;3.30;;;;;;;29.55;36.57;101248.06;4982225;28;20051;-57
2023/06/22 09:41:33;;;;;;;21.60;2.92;;;;;;;29.51;36.42;101247.56;4979866;28;20510;-56
2023/06/22 09:44:00;;;;;;;3.55;2.58;;;;;;;29.53;36.59;101248.19;4975964;28;20546;-55
2023/06/22 09:46:28;;;;;;;7.00;3.00;;;;;;;29.48;36.39;101244.41;4980240;28;20136;-57
2023/06/22 09:48:56;;;;;;;3.22;2.58;;;;;;;29.49;36.46;101246.94;4982499;28;20085;-58
2023/06/22 09:51:23;;;;;;;7.40;3.00;;;;;;;29.45;35.62;101250.22;4981747;28;20070;-57
2023/06/22 09:53:52;;;;;;;4.28;3.10;;;;;;;29.51;35.51;101242.16;4974191;28;20534;-57
2023/06/22 09:56:19;;;;;;;3.33;2.65;;;;;;;29.71;35.76;101245.00;4980646;28;20097;-54
2023/06/22 09:58:47;;;;;;;4.25;3.08;;;;;;;29.79;35.62;101249.41;4983505;28;20054;-56
2023/06/22 10:01:14;;;;;;;4.78;3.00;;;;;;;29.65;35.17;101244.97;4980126;28;22118;-51
2023/06/22 10:03:41;;;;;;;4.85;2.78;;;;;;;29.73;35.54;101252.94;4972417;28;20429;-56
2023/06/22 10:06:09;;;;;;;4.03;2.38;;;;;;;29.84;35.25;101249.66;4980878;28;20141;-54
2023/06/22 10:08:36;;;;;;;4.63;2.75;;;;;;;29.96;35.03;101256.19;4976851;28;20077;-54
2023/06/22 10:11:04;;;;;;;7.57;3.08;;;;;;;29.95;35.47;101249.09;4978538;28;20141;-57
2023/06/22 10:13:31;;;;;;;3.55;2.72;;;;;;;30.02;35.98;101249.94;4981346;28;20069;-51
2023/06/22 10:15:58;;;;;;;7.13;3.25;;;;;;;30.16;36.08;101252.72;4977293;28;20059;-56
2023/06/22 10:18:26;;;;;;;6.00;3.38;;;;;;;30.40;35.55;101249.47;4978153;28;20133;-56
2023/06/22 10:20:53;;;;;;;4.80;3.50;;;;;;;30.63;35.90;101253.69;4979903;28;20060;-56
2023/06/22 10:23:20;;;;;;;8.98;4.07;;;;;;;30.77;35.86;101242.63;4982759;28;20050;-56
2023/06/22 10:25:48;;;;;;;8.98;3.50;;;;;;;30.81;35.79;101236.78;4980505;28;20058;-58
2023/06/22 10:28:15;;;;;;;9.15;3.47;;;;;;;30.81;35.37;101242.22;4976549;28;21061;-55
2023/06/22 10:30:43;;;;;;;6.20;4.07;;;;;;;30.68;35.53;101249.28;4972845;28;20140;-57
2023/06/22 10:33:11;;;;;;;6.85;3.95;;;;;;;30.69;35.99;101231.94;4983677;28;20091;-55
2023/06/22 10:35:38;;;;;;;14.55;4.18;;;;;;;30.60;35.97;101238.63;4982347;28;20137;-56
2023/06/22 10:38:06;;;;;;;4.68;3.40;;;;;;;30.46;36.25;101228.78;4982839;28;20129;-54
2023/06/22 10:40:33;;;;;;;5.45;3.58;;;;;;;30.36;36.56;101233.78;4980228;28;20073;-52
2023/06/22 10:43:00;;;;;;;4.90;3.38;;;;;;;30.40;36.57;101229.63;4966849;28;20062;-55
2023/06/22 10:45:28;;;;;;;9.13;3.50;;;;;;;30.54;36.20;101223.16;4978826;28;20061;-57
2023/06/22 10:47:56;;;;;;;4.00;3.22;;;;;;;30.71;36.08;101220.84;4982174;28;20081;-55
2023/06/22 10:50:25;;;;;;;3.35;2.85;;;;;;;30.82;35.68;101224.88;4982705;28;20541;-55
2023/06/22 10:52:53;;;;;;;5.00;3.28;;;;;;;30.95;35.30;101216.72;4982206;28;20042;-53
2023/06/22 10:55:23;;;;;;;5.07;3.03;;;;;;;31.03;35.70;101219.22;4977787;28;20638;-55
2023/06/22 10:57:52;;;;;;;3.45;3.15;;;;;;;31.05;35.10;101213.56;4978555;28;20062;-57
2023/06/22 11:00:19;;;;;;;4.65;3.33;;;;;;;31.03;35.71;101205.63;4976283;28;20058;-57
2023/06/22 11:02:47;;;;;;;4.78;3.50;;;;;;;30.94;35.00;101196.00;4981594;28;20068;-54
2023/06/22 11:05:15;;;;;;;3.97;3.22;;;;;;;30.87;35.29;101198.72;4980483;28;20066;-56
2023/06/22 11:07:43;;;;;;;4.15;3.45;;;;;;;30.67;34.78;101204.13;4987924;28;20620;-57
2023/06/22 11:10:15;;;;;;;5.68;2.90;;;;;;;30.55;34.76;101194.09;4985667;28;21332;-56
2023/06/22 11:12:43;;;;;;;5.70;3.00;;;;;;;30.73;35.22;101184.31;4985037;28;20610;-54
2023/06/22 11:15:10;;;;;;;3.88;3.13;;;;;;;31.10;35.61;101186.56;4979815;28;20046;-56
2023/06/22 11:17:38;;;;;;;4.55;3.80;;;;;;;31.35;34.52;101195.75;4988289;28;20057;-53
2023/06/22 11:20:11;;;;;;;3.90;3.20;;;;;;;31.56;34.11;101197.34;4980854;28;20561;-51
2023/06/22 11:22:39;;;;;;;8.57;3.37;;;;;;;31.65;34.03;101187.03;4993541;28;20086;-57
2023/06/22 11:25:07;;;;;;;4.68;3.60;;;;;;;31.68;33.89;101186.63;4984283;28;20150;-52